Relevés horaires Zürich / Fluntern (Suisse)


Relevés horaires à Zürich / Fluntern - Vendredi 06 Juin 2003
Heure UTC1 Température [°C] Vent [km/h] Hum. [%] Pres.4 [hPa] Visi. [Km] Nébu. [octa] Préc.5 [mm] Cond.
2m. Res. Ros. Dir.2 Vit. Moy. Raf.3
23:00 18.9 18.9 17.0 S 5.6 -- -- 89 1020.1 -- -- -- --
22:00 20.1 20.1 17.6 SE 1.9 -- -- 86 1019.6 -- -- -- --
21:00 20.9 20.9 16.8 N 1.9 -- -- 77 1019.6 -- -- -- --
20:00 21.9 21.9 16.4 N 9.3 -- -- 71 1018.9 -- -- -- --
19:00 22.5 22.5 16.5 NE 13.0 -- -- 69 1018.1 -- -- -- --
18:00 23.9 23.9 16.5 N 9.3 -- -- 63 1017.6(-0.3/3h) 14 3/8 0/0h
Brume
17:00 24.5 24.5 16.9 N 11.1 -- -- 63 1017.3 -- -- -- --
16:00 24.7 24.7 17.3 ENE 7.4 -- -- 63 1017.3 -- -- -- --
15:00 24.3 24.3 15.7 NE 9.3 -- -- 59 1017.9(-1.3/3h) 16 2/8 -- --
14:00 24.4 24.4 15.7 ENE 5.6 -- -- 58 1018.2 -- -- -- --
13:00 22.7 22.7 15.5 ENE 5.6 -- -- 64 1019.1 -- -- -- --
12:00 24.0 24.0 17.6 E 9.3 -- -- 67 1019.3(-0.2/3h) 10 3/8 0/0h
Brume
11:00 22.5 22.5 17.0 NE 7.4 -- -- 71 1019.9 -- -- -- --
10:00 21.5 21.5 16.2 NE 7.4 -- -- 72 1020.3 -- -- -- --
09:00 19.9 19.9 16.2 NO 3.7 -- -- 79 1020.5(0.4/3h) 10 7/8 -- Brouillard
08:00 19.1 19.1 16.4 NNO 5.6 -- -- 84 1020.5 -- -- -- --
07:00 19.5 19.5 17.4 OSO 5.6 -- -- 88 1020.2 -- -- -- --
06:00 18.6 18.6 16.7 SSO 5.6 -- -- 89 1020.4(-0.8/3h) 6 6/8 8/12h
Brouillard
05:00 17.9 17.9 16.5 SE 5.6 -- -- 92 1020.8 -- -- -- --
04:00 18.2 18.2 16.9 SSO 3.7 -- -- 92 1021.2 -- -- -- --
03:00 18.0 18.0 16.7 SSO 3.7 -- -- 92 1021.4 -- -- -- --
02:00 17.9 17.9 16.6 N 1.9 -- -- 92 1021.4 -- -- -- --
01:00 18.0 18.0 16.6 E 1.9 -- -- 92 1021.4 -- -- -- --
00:00 18.1 18.1 16.6 NE 5.6 -- -- 91 1021.7(0.4/3h) -- -- -- --

1 Coordinated Universal Time. Actuellement il est 00:00 locale et 22:00 UTC.

2 Le vent souffle depuis la direction indiquée vers la direction oposée.

3 Les rafales max. sont disponible 40 min après l'heure du relevé.

4 Pour les stations d'altitude (plus de 600m) le géopotentiel du niveau le plus proche de la pression obligatoire est indiqué.

5 Les stations disposant d'un diffuseur peuvent indiquer "trace". Cela signifie que des précipitations ont touchés le sol mais que la quantité est inférieure à 0.1 mm.

Copyright

Les données affichées sur cette page sont la propriété exclusive de Météo Suisse.

Récapitulatif de la journée
Température [°C] Vent [km/h] Ensoleillement4 [h] Precipitations totale5 [mm] Pression [Hpa]
Min1 Max.2 Moy.3 Max. Min Max.
17.8 25.4 0 -- 6 h 54 min 0.8 1017.3 1021.7

1 Température minimale relevée entre 18:00 UTC la veille et 18:00 UTC le jour donné.

2 Température maximale relevée entre 06:00 UTC le jour donné et 06:00 UTC le lendemain.

3 Vent moyen de la journée basé sur les relevés horaires.

4 Ensoleillement en heures relevé entre 06:00 UTC la veille et 06:00 UTC le jour donné.

5 Précipitations totales tombées entre 06:00 UTC la jour donné et 06:00 UTC le lendemain.

Graphiques horaires